Terminal Aerodrome Forecast
Issued by NWS

Home | Current Version | Previous Version | Text Only | Print | Product List | Glossary On
Versions: 1 2 3 4 5 6 7 8 9 10 11 12 13 14 15 16 17 18
000
FTUS44 KLZK 271133
TAFPBF
TAF
KPBF 271133Z 2712/2812 08008KT P6SM VCSH SCT030 OVC050
     FM271500 18008KT P6SM VCSH SCT025 BKN050 OVC100
     FM271800 22008KT P6SM VCSH BKN050 OVC100
     FM272100 24012G22KT P6SM SCT030 BKN250=

USA.gov is the U.S. government's official web portal to all federal, state and local government web resources and services.